createdAt,value
2018-12-01T00:02:41.462Z,44.93
2018-12-01T00:05:46.203Z,45.40
2018-12-01T00:08:50.769Z,42.57
2018-12-01T00:11:55.596Z,41.53
2018-12-01T00:15:00.285Z,41.77
2018-12-01T00:18:05.185Z,40.30
2018-12-01T00:21:09.972Z,38.40
2018-12-01T00:24:14.533Z,42.20
2018-12-01T00:27:19.135Z,37.20
2018-12-01T00:30:24.451Z,42.40
2018-12-01T00:33:29.042Z,40.33
2018-12-01T00:36:33.710Z,39.97
2018-12-01T00:39:38.371Z,39.63
2018-12-01T00:42:43.018Z,39.67
2018-12-01T00:45:47.642Z,41.63
2018-12-01T00:48:52.312Z,40.53
2018-12-01T00:51:56.910Z,36.43
2018-12-01T00:55:01.647Z,39.50
2018-12-01T00:58:06.231Z,39.97
2018-12-01T01:01:10.866Z,40.20
2018-12-01T01:04:15.421Z,37.07
2018-12-01T01:07:20.028Z,35.20
2018-12-01T01:10:26.309Z,37.60
2018-12-01T01:13:30.976Z,40.03
2018-12-01T01:16:35.545Z,39.47
2018-12-01T01:19:40.197Z,39.27
2018-12-01T01:22:45.392Z,37.47
2018-12-01T01:25:50.055Z,35.53
2018-12-01T01:28:54.894Z,38.47
2018-12-01T01:31:59.434Z,38.80
2018-12-01T01:35:03.992Z,36.47
2018-12-01T01:38:08.675Z,37.67
2018-12-01T01:41:13.383Z,39.57
2018-12-01T01:44:18.032Z,44.23
2018-12-01T01:47:22.636Z,40.43
2018-12-01T01:50:27.165Z,43.60
2018-12-01T01:53:31.917Z,45.07
2018-12-01T01:56:36.532Z,39.43
2018-12-01T01:59:41.126Z,43.30
2018-12-01T02:02:49.100Z,42.27
2018-12-01T02:05:53.597Z,43.37
2018-12-01T02:08:58.254Z,36.83
2018-12-01T02:12:02.849Z,45.23
2018-12-01T02:15:09.259Z,38.47
2018-12-01T02:18:13.867Z,41.13
2018-12-01T02:21:18.449Z,41.87
2018-12-01T02:24:23.020Z,40.17
2018-12-01T02:27:27.633Z,33.63
2018-12-01T02:30:32.273Z,37.17
2018-12-01T02:33:36.831Z,36.60
2018-12-01T02:36:42.606Z,52.93
2018-12-01T02:39:47.153Z,37.07
2018-12-01T02:42:51.829Z,35.23
2018-12-01T02:46:13.515Z,38.97
2018-12-01T02:49:18.035Z,35.90
2018-12-01T02:52:22.725Z,37.60
2018-12-01T02:55:27.430Z,33.73
2018-12-01T02:58:32.100Z,36.13
2018-12-01T03:01:36.743Z,38.60
2018-12-01T03:04:42.908Z,31.50
2018-12-01T03:07:47.660Z,36.93
2018-12-01T03:10:52.883Z,35.00
2018-12-01T03:13:57.478Z,35.83
2018-12-01T03:17:02.104Z,35.83
2018-12-01T03:20:13.271Z,40.63
2018-12-01T03:23:17.947Z,35.63
2018-12-01T03:26:22.529Z,32.83
2018-12-01T03:29:27.263Z,40.37
2018-12-01T03:32:31.759Z,40.27
2018-12-01T03:35:36.308Z,37.87
2018-12-01T03:38:40.955Z,40.27
2018-12-01T03:41:45.549Z,46.50
2018-12-01T03:44:50.177Z,46.17
2018-12-01T03:47:54.772Z,43.60
2018-12-01T03:50:59.377Z,42.90
2018-12-01T03:54:03.974Z,39.43
2018-12-01T03:57:08.563Z,39.47
2018-12-01T04:00:13.279Z,44.80
2018-12-01T04:03:17.863Z,42.03
2018-12-01T04:06:22.512Z,42.27
2018-12-01T04:09:27.156Z,40.87
2018-12-01T04:12:31.668Z,34.13
2018-12-01T04:15:36.249Z,40.30
2018-12-01T04:18:41.053Z,36.27
2018-12-01T04:21:45.670Z,40.47
2018-12-01T04:24:50.266Z,39.13
2018-12-01T04:27:54.965Z,37.50
2018-12-01T04:30:59.603Z,37.87
2018-12-01T04:34:04.232Z,36.70
2018-12-01T04:37:08.712Z,37.80
2018-12-01T04:40:14.509Z,38.63
2018-12-01T04:43:19.020Z,39.67
2018-12-01T04:46:23.686Z,36.87
2018-12-01T04:49:28.229Z,38.47
2018-12-01T04:52:32.715Z,35.63
2018-12-01T04:55:37.341Z,39.50
2018-12-01T04:58:41.897Z,40.27
2018-12-01T05:01:46.635Z,43.07
2018-12-01T05:04:51.241Z,47.20
2018-12-01T05:07:55.781Z,43.07
2018-12-01T05:11:00.460Z,42.33
2018-12-01T05:14:05.054Z,42.63
2018-12-01T05:17:09.782Z,43.50
2018-12-01T05:20:23.798Z,38.97
2018-12-01T05:23:28.478Z,37.30
2018-12-01T05:26:33.008Z,36.90
2018-12-01T05:29:37.572Z,38.27
2018-12-01T05:32:42.221Z,38.33
2018-12-01T05:35:46.810Z,39.23
2018-12-01T05:38:51.339Z,37.60
2018-12-01T05:41:55.944Z,41.93
2018-12-01T05:45:00.618Z,41.17
2018-12-01T05:48:05.814Z,41.47
2018-12-01T05:51:10.588Z,42.93
2018-12-01T05:54:15.350Z,44.47
2018-12-01T05:57:19.935Z,40.17
2018-12-01T06:00:24.757Z,35.07
2018-12-01T06:03:29.553Z,40.93
2018-12-01T06:06:34.228Z,40.47
2018-12-01T06:09:39.481Z,40.83
2018-12-01T06:12:44.078Z,40.07
2018-12-01T06:15:48.558Z,41.53
2018-12-01T06:18:53.323Z,43.07
2018-12-01T06:21:58.087Z,45.37
2018-12-01T06:25:02.759Z,44.67
2018-12-01T06:28:07.291Z,40.60
2018-12-01T06:31:12.149Z,44.93
2018-12-01T06:34:16.764Z,45.67
2018-12-01T06:37:21.309Z,52.20
2018-12-01T06:40:25.976Z,39.77
2018-12-01T06:43:30.700Z,45.47
2018-12-01T06:46:35.266Z,52.97
2018-12-01T06:49:39.932Z,49.67
2018-12-01T06:52:48.460Z,55.73
2018-12-01T06:55:53.032Z,52.23
2018-12-01T06:58:57.946Z,53.67
2018-12-01T07:02:02.471Z,44.80
2018-12-01T07:05:09.040Z,51.33
2018-12-01T07:08:13.710Z,47.23
2018-12-01T07:11:18.294Z,44.00
2018-12-01T07:14:22.880Z,46.20
2018-12-01T07:17:27.643Z,50.37
2018-12-01T07:20:32.219Z,47.73
2018-12-01T07:23:36.785Z,47.50
2018-12-01T07:26:41.670Z,46.47
2018-12-01T07:29:46.403Z,53.37
2018-12-01T07:32:51.087Z,46.10
2018-12-01T07:35:55.816Z,52.70
2018-12-01T07:39:00.600Z,57.97
2018-12-01T07:42:05.218Z,42.33
2018-12-01T07:45:13.823Z,62.80
2018-12-01T07:48:18.426Z,54.20
2018-12-01T07:51:23.208Z,65.77
2018-12-01T07:54:27.793Z,49.77
2018-12-01T07:57:32.520Z,52.53
2018-12-01T08:00:37.243Z,46.27
2018-12-01T08:03:41.960Z,60.67
2018-12-01T08:06:46.611Z,46.70
2018-12-01T08:09:51.148Z,43.60
2018-12-01T08:12:55.756Z,44.57
2018-12-01T08:16:00.296Z,45.80
2018-12-01T08:19:04.919Z,43.97
2018-12-01T08:22:09.636Z,48.20
2018-12-01T08:25:18.399Z,39.67
2018-12-01T08:28:25.055Z,52.37
2018-12-01T08:31:29.758Z,47.83
2018-12-01T08:34:34.347Z,41.73
2018-12-01T08:37:38.927Z,41.03
2018-12-01T08:40:43.533Z,62.83
2018-12-01T08:43:48.261Z,51.73
2018-12-01T08:46:52.998Z,50.10
2018-12-01T08:49:57.645Z,49.63
2018-12-01T08:53:02.459Z,43.70
2018-12-01T08:56:07.108Z,47.13
2018-12-01T08:59:11.789Z,46.13
2018-12-01T09:02:16.615Z,46.17
2018-12-01T09:05:21.217Z,47.37
2018-12-01T09:08:25.942Z,38.33
2018-12-01T09:11:30.518Z,41.70
2018-12-01T09:14:35.071Z,41.93
2018-12-01T09:17:40.139Z,41.73
2018-12-01T09:20:44.722Z,40.97
2018-12-01T09:23:49.384Z,38.67
2018-12-01T09:26:54.124Z,38.97
2018-12-01T09:29:58.925Z,38.00
2018-12-01T09:33:03.578Z,40.93
2018-12-01T09:36:08.127Z,49.30
2018-12-01T09:39:12.754Z,42.67
2018-12-01T09:42:17.392Z,39.40
2018-12-01T09:45:26.118Z,37.27
2018-12-01T09:48:30.821Z,43.87
2018-12-01T09:51:35.569Z,34.30
2018-12-01T09:54:40.186Z,37.97
2018-12-01T09:57:45.801Z,31.57
2018-12-01T10:00:50.377Z,34.33
2018-12-01T10:03:54.934Z,39.70
2018-12-01T10:06:59.666Z,41.30
2018-12-01T10:10:04.918Z,43.23
2018-12-01T10:13:09.514Z,38.07
2018-12-01T10:16:14.158Z,38.53
2018-12-01T10:19:18.715Z,43.10
2018-12-01T10:22:23.324Z,38.27
2018-12-01T10:25:28.116Z,38.73
2018-12-01T10:28:32.682Z,36.47
2018-12-01T10:31:37.202Z,33.40
2018-12-01T10:34:41.768Z,36.10
2018-12-01T10:37:50.063Z,34.70
2018-12-01T10:40:55.408Z,38.10
2018-12-01T10:43:59.963Z,37.43
2018-12-01T10:47:04.615Z,39.40
2018-12-01T10:50:13.276Z,38.57
2018-12-01T10:53:18.261Z,36.67
2018-12-01T10:56:22.894Z,39.07
2018-12-01T10:59:27.726Z,38.00
2018-12-01T11:02:37.444Z,36.47
2018-12-01T11:05:42.200Z,45.33
2018-12-01T11:08:46.980Z,35.60
2018-12-01T11:11:51.789Z,42.53
2018-12-01T11:14:56.785Z,43.23
2018-12-01T11:18:01.655Z,51.33
2018-12-01T11:21:06.641Z,47.73
2018-12-01T11:24:11.256Z,46.63
2018-12-01T11:27:16.519Z,48.93
2018-12-01T11:30:21.264Z,47.60
2018-12-01T11:33:26.806Z,43.20
2018-12-01T11:39:49.681Z,37.70
2018-12-01T11:42:54.438Z,36.77
2018-12-01T11:45:59.151Z,36.87
2018-12-01T11:49:03.823Z,37.27
2018-12-01T11:52:08.538Z,37.00
2018-12-01T11:55:16.585Z,34.37
2018-12-01T11:58:21.149Z,31.33
2018-12-01T12:01:25.774Z,37.80
2018-12-01T12:04:30.448Z,29.73
2018-12-01T12:07:51.914Z,36.83
2018-12-01T12:10:56.776Z,32.73
2018-12-01T12:14:01.377Z,33.70
2018-12-01T12:17:06.082Z,27.33
2018-12-01T12:20:11.519Z,33.23
2018-12-01T12:23:16.865Z,28.73
2018-12-01T12:26:20.734Z,27.57
2018-12-01T12:29:25.473Z,29.03
2018-12-01T12:32:30.128Z,26.83
2018-12-01T12:35:34.802Z,26.33
2018-12-01T12:38:39.920Z,26.60
2018-12-01T12:41:44.562Z,29.80
2018-12-01T12:44:49.170Z,31.07
2018-12-01T12:47:53.736Z,27.43
2018-12-01T12:50:58.374Z,26.60
2018-12-01T12:54:03.133Z,23.73
2018-12-01T12:57:07.770Z,24.40
2018-12-01T13:00:21.843Z,31.40
2018-12-01T13:03:26.651Z,27.40
2018-12-01T13:06:31.226Z,31.50
2018-12-01T13:09:36.061Z,29.10
2018-12-01T13:12:40.710Z,28.03
2018-12-01T13:15:46.420Z,25.03
2018-12-01T13:18:51.018Z,29.53
2018-12-01T13:21:55.804Z,28.63
2018-12-01T13:25:00.610Z,26.00
2018-12-01T13:28:22.037Z,29.97
2018-12-01T13:31:26.987Z,29.33
2018-12-01T13:34:31.777Z,38.23
2018-12-01T13:37:36.666Z,30.73
2018-12-01T13:40:41.425Z,35.87
2018-12-01T13:43:46.136Z,30.87
2018-12-01T13:46:50.791Z,32.60
2018-12-01T13:49:55.421Z,31.17
2018-12-01T13:53:02.117Z,23.97
2018-12-01T13:56:06.924Z,24.53
2018-12-01T13:59:11.765Z,31.27
2018-12-01T14:02:16.402Z,37.00
2018-12-01T14:05:20.996Z,30.53
2018-12-01T14:08:25.590Z,39.13
2018-12-01T14:11:30.299Z,35.17
2018-12-01T14:14:34.864Z,29.13
2018-12-01T14:17:40.610Z,26.13
2018-12-01T14:20:45.248Z,28.07
2018-12-01T14:23:49.978Z,47.37
2018-12-01T14:26:56.966Z,81.10
2018-12-01T14:30:02.170Z,43.20
2018-12-01T14:33:08.146Z,27.60
2018-12-01T14:36:13.101Z,27.47
2018-12-01T14:39:17.829Z,24.87
2018-12-01T14:42:22.473Z,24.97
2018-12-01T14:45:27.145Z,29.20
2018-12-01T14:48:31.806Z,33.10
2018-12-01T14:51:36.613Z,38.23
2018-12-01T14:54:41.350Z,29.27
2018-12-01T14:57:46.748Z,28.90
2018-12-01T15:00:51.371Z,21.83
2018-12-01T15:03:56.007Z,19.00
2018-12-01T15:07:01.137Z,12.20
2018-12-01T15:10:12.920Z,5.60
2018-12-01T15:13:17.580Z,7.97
2018-12-01T15:16:22.143Z,9.00
2018-12-01T15:19:26.767Z,9.37
2018-12-01T15:22:31.321Z,7.20
2018-12-01T15:25:36.019Z,6.53
2018-12-01T15:28:40.685Z,10.00
2018-12-01T15:31:45.335Z,28.27
2018-12-01T15:34:50.022Z,26.90
2018-12-01T15:37:54.630Z,16.93
2018-12-01T15:40:59.360Z,21.70
2018-12-01T15:44:04.195Z,22.30
2018-12-01T15:47:08.866Z,21.13
2018-12-01T15:50:15.968Z,29.37
2018-12-01T15:53:20.600Z,32.07
2018-12-01T15:56:25.200Z,44.37
2018-12-01T15:59:29.737Z,36.10
2018-12-01T16:02:34.441Z,34.10
2018-12-01T16:05:39.206Z,31.70
2018-12-01T16:08:43.792Z,44.40
2018-12-01T16:11:48.497Z,38.73
2018-12-01T16:14:53.042Z,36.27
2018-12-01T16:17:57.755Z,36.23
2018-12-01T16:21:02.399Z,42.60
2018-12-01T16:24:07.286Z,45.13
2018-12-01T16:27:11.906Z,42.43
2018-12-01T16:30:38.813Z,30.27
2018-12-01T16:33:43.498Z,26.20
2018-12-01T16:36:48.161Z,36.00
2018-12-01T16:39:52.896Z,34.13
2018-12-01T16:42:59.599Z,27.30
2018-12-01T16:46:04.473Z,30.33
2018-12-01T16:49:09.150Z,34.43
2018-12-01T16:52:13.852Z,36.50
2018-12-01T16:55:19.024Z,37.13
2018-12-01T16:58:23.687Z,38.67
2018-12-01T17:01:28.444Z,26.83
2018-12-01T17:04:33.507Z,36.40
2018-12-01T17:07:38.212Z,29.77
2018-12-01T17:10:42.900Z,40.00
2018-12-01T17:13:47.734Z,45.07
2018-12-01T17:16:52.576Z,47.90
2018-12-01T17:19:57.352Z,51.30
2018-12-01T17:23:02.283Z,44.73
2018-12-01T17:26:06.884Z,44.67
2018-12-01T17:29:11.578Z,37.53
2018-12-01T17:32:16.457Z,34.43
2018-12-01T17:35:25.115Z,34.30
2018-12-01T17:38:29.780Z,36.07
2018-12-01T17:41:34.439Z,45.97
2018-12-01T17:44:39.358Z,87.40
2018-12-01T17:47:44.843Z,46.10
2018-12-01T17:50:49.498Z,47.03
2018-12-01T17:53:57.243Z,100.27
2018-12-01T17:57:01.830Z,405.80
2018-12-01T18:00:28.907Z,257.80
2018-12-01T18:03:33.557Z,71.33
2018-12-01T18:06:38.240Z,65.20
2018-12-01T18:09:43.016Z,50.23
2018-12-01T18:12:47.521Z,54.03
2018-12-01T18:15:53.014Z,61.73
2018-12-01T18:18:57.840Z,38.63
2018-12-01T18:22:02.429Z,42.80
2018-12-01T18:25:08.954Z,43.73
2018-12-01T18:28:18.080Z,63.20
2018-12-01T18:31:26.282Z,61.33
2018-12-01T18:34:31.018Z,62.30
2018-12-01T18:37:35.693Z,72.10
2018-12-01T18:40:40.395Z,53.27
2018-12-01T18:43:45.050Z,101.33
2018-12-01T18:46:49.738Z,79.37
2018-12-01T18:49:54.471Z,98.90
2018-12-01T18:53:00.890Z,134.47
2018-12-01T18:56:06.265Z,118.40
2018-12-01T18:59:10.997Z,117.60
2018-12-01T19:02:15.724Z,82.47
2018-12-01T19:05:20.321Z,51.90
2018-12-01T19:08:24.877Z,89.27
2018-12-01T19:11:29.528Z,70.33
2018-12-01T19:14:34.069Z,95.53
2018-12-01T19:17:38.759Z,93.23
2018-12-01T19:20:43.434Z,112.60
2018-12-01T19:23:48.057Z,58.40
2018-12-01T19:26:52.779Z,105.73
2018-12-01T19:29:57.373Z,98.60
2018-12-01T19:33:11.316Z,65.40
2018-12-01T19:36:15.917Z,127.30
2018-12-01T19:39:20.541Z,62.93
2018-12-01T19:42:25.228Z,98.63
2018-12-01T19:45:29.891Z,98.77
2018-12-01T19:48:34.576Z,73.33
2018-12-01T19:51:39.216Z,44.53
2018-12-01T19:54:43.945Z,61.50
2018-12-01T19:57:48.602Z,61.73
2018-12-01T20:00:56.120Z,73.23
2018-12-01T20:04:00.775Z,117.10
2018-12-01T20:07:05.377Z,168.70
2018-12-01T20:10:15.615Z,181.37
2018-12-01T20:13:25.397Z,92.00
2018-12-01T20:16:33.680Z,96.87
2018-12-01T20:19:38.516Z,104.60
2018-12-01T20:22:43.425Z,64.77
2018-12-01T20:25:50.358Z,53.30
2018-12-01T20:28:54.949Z,55.80
2018-12-01T20:31:59.648Z,66.13
2018-12-01T20:35:04.290Z,53.77
2018-12-01T20:38:18.546Z,52.07
2018-12-01T20:41:23.156Z,110.40
2018-12-01T20:44:27.721Z,106.03
2018-12-01T20:47:32.259Z,64.13
2018-12-01T20:50:36.910Z,69.53
2018-12-01T20:53:41.498Z,72.50
2018-12-01T20:56:46.179Z,59.77
2018-12-01T20:59:50.922Z,77.27
2018-12-01T21:02:55.578Z,53.03
2018-12-01T21:06:00.197Z,65.60
2018-12-01T21:09:05.658Z,82.90
2018-12-01T21:12:12.403Z,65.30
2018-12-01T21:15:18.202Z,71.90
2018-12-01T21:18:22.894Z,95.67
2018-12-01T21:21:28.030Z,102.30
2018-12-01T21:24:32.784Z,74.27
2018-12-01T21:27:37.308Z,112.17
2018-12-01T21:30:41.969Z,98.37
2018-12-01T21:33:46.851Z,87.10
2018-12-01T21:36:51.814Z,73.47
2018-12-01T21:43:11.816Z,45.27
2018-12-01T21:46:16.551Z,38.60
2018-12-01T21:49:21.242Z,98.83
2018-12-01T21:52:26.782Z,46.50
2018-12-01T21:55:32.121Z,118.40
2018-12-01T21:58:36.701Z,98.73
2018-12-01T22:01:41.258Z,74.43
2018-12-01T22:04:45.843Z,37.90
2018-12-01T22:07:50.419Z,40.73
2018-12-01T22:10:59.016Z,37.37
2018-12-01T22:14:03.584Z,32.73
2018-12-01T22:17:08.993Z,35.77
2018-12-01T22:20:20.150Z,33.13
2018-12-01T22:23:24.920Z,33.30
2018-12-01T22:26:30.045Z,34.40
2018-12-01T22:29:36.359Z,44.77
2018-12-01T22:32:41.030Z,48.97
2018-12-01T22:35:47.907Z,44.47
2018-12-01T22:38:52.562Z,43.03
2018-12-01T22:41:57.132Z,42.50
2018-12-01T22:45:01.772Z,42.00
2018-12-01T22:48:10.397Z,37.17
2018-12-01T22:51:15.044Z,35.27
2018-12-01T22:54:19.661Z,37.83
2018-12-01T22:57:24.430Z,34.17
2018-12-01T23:00:43.322Z,34.47
2018-12-01T23:03:48.106Z,37.93
2018-12-01T23:06:53.558Z,37.57
2018-12-01T23:10:05.783Z,36.50
2018-12-01T23:13:13.238Z,37.33
2018-12-01T23:16:18.078Z,42.33
2018-12-01T23:19:23.461Z,38.53
2018-12-01T23:22:28.597Z,35.83
2018-12-01T23:25:33.670Z,30.97
2018-12-01T23:28:38.650Z,35.07
2018-12-01T23:31:43.205Z,35.47
2018-12-01T23:34:49.069Z,31.87
2018-12-01T23:37:53.677Z,38.70
2018-12-01T23:40:58.325Z,35.10
2018-12-01T23:44:02.941Z,31.13
2018-12-01T23:47:07.677Z,30.73
2018-12-01T23:50:18.662Z,32.20
2018-12-01T23:53:24.569Z,30.87
2018-12-01T23:56:29.194Z,27.10
2018-12-01T23:59:33.725Z,18.43
